createdAt,value
2022-09-16T00:01:34.318Z,12.00
2022-09-16T00:04:05.098Z,12.00
2022-09-16T00:06:35.663Z,11.99
2022-09-16T00:09:06.036Z,11.98
2022-09-16T00:11:36.519Z,11.96
2022-09-16T00:14:07.371Z,11.93
2022-09-16T00:16:38.091Z,11.92
2022-09-16T00:19:09.416Z,11.93
2022-09-16T00:21:40.330Z,11.92
2022-09-16T00:24:15.586Z,11.91
2022-09-16T00:26:46.178Z,11.88
2022-09-16T00:29:16.500Z,11.84
2022-09-16T00:31:47.035Z,11.80
2022-09-16T00:34:17.409Z,11.76
2022-09-16T00:36:47.867Z,11.73
2022-09-16T00:39:18.160Z,11.72
2022-09-16T00:41:48.588Z,11.69
2022-09-16T00:44:55.930Z,11.67
2022-09-16T00:47:30.922Z,11.61
2022-09-16T00:50:05.491Z,11.57
2022-09-16T00:52:36.111Z,11.54
2022-09-16T00:55:09.659Z,11.54
2022-09-16T00:57:40.828Z,11.52
2022-09-16T01:00:13.700Z,11.49
2022-09-16T01:02:42.684Z,11.45
2022-09-16T01:05:15.640Z,11.41
2022-09-16T01:07:45.595Z,11.34
2022-09-16T01:10:19.188Z,11.29
2022-09-16T01:12:52.040Z,11.24
2022-09-16T01:15:24.234Z,11.22
2022-09-16T01:18:04.033Z,11.23
2022-09-16T01:20:57.119Z,11.23
2022-09-16T01:23:59.916Z,11.23
2022-09-16T01:26:47.100Z,11.21
2022-09-16T01:30:02.668Z,11.19
2022-09-16T01:32:36.936Z,11.17
2022-09-16T01:35:11.338Z,11.18
2022-09-16T01:37:50.549Z,11.21
2022-09-16T01:40:26.084Z,11.22
2022-09-16T01:43:01.348Z,11.21
2022-09-16T01:45:37.525Z,11.20
2022-09-16T01:48:13.053Z,11.18
2022-09-16T01:50:46.524Z,11.19
2022-09-16T01:53:22.249Z,11.21
2022-09-16T01:55:55.746Z,11.21
2022-09-16T01:58:28.960Z,11.21
2022-09-16T02:01:03.912Z,11.19
2022-09-16T02:03:37.268Z,11.18
2022-09-16T02:06:09.669Z,11.16
2022-09-16T02:08:50.901Z,11.16
2022-09-16T02:11:21.528Z,11.18
2022-09-16T02:13:54.591Z,11.17
2022-09-16T02:16:30.830Z,11.16
2022-09-16T02:19:07.632Z,11.14
2022-09-16T02:21:43.485Z,11.11
2022-09-16T02:24:18.441Z,11.09
2022-09-16T02:26:47.725Z,11.08
2022-09-16T02:29:20.669Z,11.06
2022-09-16T02:31:53.563Z,11.06
2022-09-16T02:34:29.738Z,11.03
2022-09-16T02:37:05.853Z,11.00
2022-09-16T02:39:39.699Z,10.97
2022-09-16T02:42:10.483Z,10.95
2022-09-16T02:44:41.323Z,10.92
2022-09-16T02:47:13.930Z,10.92
2022-09-16T02:49:49.493Z,10.92
2022-09-16T02:52:26.008Z,10.90
2022-09-16T02:55:03.085Z,10.88
2022-09-16T02:57:33.550Z,10.84
2022-09-16T03:00:04.768Z,10.81
2022-09-16T03:02:36.013Z,10.80
2022-09-16T03:05:07.548Z,10.82
2022-09-16T03:07:38.171Z,10.82
2022-09-16T03:10:10.376Z,10.79
2022-09-16T03:12:50.099Z,10.77
2022-09-16T03:15:40.452Z,10.74
2022-09-16T03:18:21.016Z,10.72
2022-09-16T03:20:56.215Z,10.73
2022-09-16T03:23:33.701Z,10.73
2022-09-16T03:26:09.349Z,10.72
2022-09-16T03:28:45.088Z,10.70
2022-09-16T03:31:20.031Z,10.67
2022-09-16T03:33:54.120Z,10.65
2022-09-16T03:36:27.029Z,10.65
2022-09-16T03:38:55.908Z,10.66
2022-09-16T03:41:28.139Z,10.67
2022-09-16T03:44:03.712Z,10.67
2022-09-16T03:46:36.143Z,10.66
2022-09-16T03:49:07.431Z,10.66
2022-09-16T03:51:37.779Z,10.67
2022-09-16T03:54:08.165Z,10.69
2022-09-16T03:56:38.530Z,10.70
2022-09-16T03:59:08.828Z,10.69
2022-09-16T04:01:39.299Z,10.67
2022-09-16T04:04:09.701Z,10.63
2022-09-16T04:06:40.153Z,10.59
2022-09-16T04:09:12.319Z,10.57
2022-09-16T04:11:43.699Z,10.55
2022-09-16T04:14:15.726Z,10.51
2022-09-16T04:16:47.690Z,10.47
2022-09-16T04:19:19.130Z,10.42
2022-09-16T04:21:50.761Z,10.36
2022-09-16T04:24:22.589Z,10.32
2022-09-16T04:26:54.479Z,10.31
2022-09-16T04:29:25.567Z,10.29
2022-09-16T04:31:58.527Z,10.28
2022-09-16T04:34:29.996Z,10.26
2022-09-16T04:37:02.519Z,10.24
2022-09-16T04:39:33.816Z,10.21
2022-09-16T04:42:07.542Z,10.20
2022-09-16T04:44:40.352Z,10.18
2022-09-16T04:47:11.515Z,10.16
2022-09-16T04:49:44.098Z,10.12
2022-09-16T04:52:16.545Z,10.07
2022-09-16T04:54:47.825Z,10.03
2022-09-16T04:57:20.589Z,9.99
2022-09-16T04:59:51.629Z,9.96
2022-09-16T05:02:24.554Z,9.94
2022-09-16T05:04:55.886Z,9.93
2022-09-16T05:07:27.179Z,9.90
2022-09-16T05:09:59.912Z,9.86
2022-09-16T05:19:37.622Z,9.79
2022-09-16T05:22:08.066Z,9.79
2022-09-16T05:24:41.512Z,9.82
2022-09-16T05:27:11.932Z,9.86
2022-09-16T05:29:42.362Z,9.92
2022-09-16T05:32:12.716Z,9.97
2022-09-16T05:34:43.076Z,10.06
2022-09-16T05:37:14.047Z,10.16
2022-09-16T05:39:44.405Z,10.33
2022-09-16T05:42:14.843Z,10.59
2022-09-16T05:44:45.147Z,10.70
2022-09-16T05:47:15.867Z,10.76
2022-09-16T05:49:46.181Z,10.82
2022-09-16T05:52:16.887Z,10.87
2022-09-16T05:54:47.201Z,10.91
2022-09-16T05:57:17.715Z,10.98
2022-09-16T05:59:48.068Z,11.14
2022-09-16T06:02:18.568Z,11.34
2022-09-16T06:04:49.321Z,11.49
2022-09-16T06:07:19.736Z,11.76
2022-09-16T06:09:50.044Z,12.47
2022-09-16T06:12:20.394Z,13.12
2022-09-16T06:14:50.807Z,13.24
2022-09-16T06:17:21.268Z,13.18
2022-09-16T06:19:51.764Z,13.10
2022-09-16T06:22:22.181Z,13.15
2022-09-16T06:24:53.556Z,13.49
2022-09-16T06:27:23.900Z,13.84
2022-09-16T06:29:54.262Z,14.43
2022-09-16T06:32:24.624Z,14.77
2022-09-16T06:34:55.160Z,14.88
2022-09-16T06:37:26.058Z,15.22
2022-09-16T06:39:56.458Z,15.43
2022-09-16T06:42:28.072Z,15.61
2022-09-16T06:45:03.167Z,16.13
2022-09-16T06:47:33.885Z,16.73
2022-09-16T06:50:04.547Z,17.23
2022-09-16T06:52:35.226Z,17.15
2022-09-16T06:55:05.881Z,16.94
2022-09-16T06:57:36.320Z,17.03
2022-09-16T07:00:08.452Z,17.31
2022-09-16T07:02:39.205Z,17.53
2022-09-16T07:05:12.006Z,18.02
2022-09-16T07:07:42.348Z,18.53
2022-09-16T07:10:13.021Z,18.95
2022-09-16T07:12:43.763Z,19.40
2022-09-16T07:15:14.648Z,20.00
2022-09-16T07:17:44.973Z,20.54
2022-09-16T07:20:15.291Z,20.64
2022-09-16T07:22:45.696Z,20.52
2022-09-16T07:25:16.254Z,19.97
2022-09-16T07:27:46.576Z,19.31
2022-09-16T07:30:17.195Z,18.75
2022-09-16T07:32:47.522Z,18.27
2022-09-16T07:35:18.031Z,18.11
2022-09-16T07:37:48.334Z,18.04
2022-09-16T07:40:19.112Z,17.82
2022-09-16T07:42:49.454Z,17.85
2022-09-16T07:45:19.857Z,18.14
2022-09-16T07:47:52.427Z,18.43
2022-09-16T07:50:22.429Z,18.67
2022-09-16T07:52:56.300Z,18.80
2022-09-16T07:55:27.230Z,19.10
2022-09-16T07:57:57.621Z,19.56
2022-09-16T08:00:27.920Z,20.08
2022-09-16T08:03:00.757Z,20.65
2022-09-16T08:05:31.048Z,21.19
2022-09-16T08:08:01.359Z,21.63
2022-09-16T08:10:32.513Z,21.46
2022-09-16T08:13:04.250Z,20.91
2022-09-16T08:15:34.554Z,20.43
2022-09-16T08:18:05.256Z,19.89
2022-09-16T08:20:37.592Z,19.24
2022-09-16T08:23:08.135Z,18.58
2022-09-16T08:25:38.402Z,18.34
2022-09-16T08:28:08.757Z,18.14
2022-09-16T08:30:39.381Z,18.49
2022-09-16T08:33:09.971Z,19.03
2022-09-16T08:35:40.277Z,19.42
2022-09-16T08:38:10.555Z,19.66
2022-09-16T08:40:44.184Z,20.14
2022-09-16T08:43:20.249Z,20.55
2022-09-16T08:45:55.580Z,20.52
2022-09-16T08:48:32.731Z,20.34
2022-09-16T08:51:06.029Z,20.54
2022-09-16T08:53:39.194Z,21.06
2022-09-16T08:56:15.215Z,20.95
2022-09-16T08:58:48.629Z,20.42
2022-09-16T09:01:24.918Z,19.91
2022-09-16T09:03:55.939Z,19.31
2022-09-16T09:06:34.928Z,18.93
2022-09-16T09:09:13.371Z,18.73
2022-09-16T09:11:48.115Z,18.71
2022-09-16T09:14:29.415Z,18.68
2022-09-16T09:17:08.254Z,18.63
2022-09-16T09:19:50.136Z,18.56
2022-09-16T09:22:31.945Z,18.42
2022-09-16T09:25:15.162Z,18.22
2022-09-16T09:27:53.650Z,17.97
2022-09-16T09:30:25.483Z,17.71
2022-09-16T09:33:22.203Z,17.42
2022-09-16T09:36:14.468Z,17.28
2022-09-16T09:38:57.420Z,17.62
2022-09-16T09:41:32.461Z,17.73
2022-09-16T09:44:20.066Z,17.53
2022-09-16T09:46:53.707Z,17.37
2022-09-16T09:49:32.679Z,17.21
2022-09-16T09:52:07.931Z,17.06
2022-09-16T09:54:39.035Z,16.90
2022-09-16T09:57:17.806Z,16.78
2022-09-16T09:59:50.536Z,16.64
2022-09-16T10:02:21.378Z,16.51
2022-09-16T10:04:51.924Z,16.40
2022-09-16T10:07:25.040Z,16.28
2022-09-16T10:09:57.647Z,16.08
2022-09-16T10:12:33.821Z,15.93
2022-09-16T10:15:04.746Z,15.83
2022-09-16T10:17:35.415Z,15.82
2022-09-16T10:20:23.704Z,15.81
2022-09-16T10:23:01.277Z,15.86
2022-09-16T10:25:33.402Z,15.93
2022-09-16T10:28:05.906Z,16.03
2022-09-16T10:30:46.246Z,16.11
2022-09-16T10:33:21.575Z,16.20
2022-09-16T10:35:57.963Z,16.29
2022-09-16T10:38:37.588Z,16.47
2022-09-16T10:41:15.053Z,16.63
2022-09-16T10:43:50.649Z,16.69
2022-09-16T10:46:21.709Z,16.77
2022-09-16T10:48:54.195Z,16.80
2022-09-16T10:51:26.729Z,16.78
2022-09-16T10:53:58.933Z,16.79
2022-09-16T10:56:30.450Z,16.78
2022-09-16T10:59:11.548Z,16.74
2022-09-16T11:01:47.510Z,16.77
2022-09-16T11:04:32.281Z,17.73
2022-09-16T11:07:10.891Z,18.89
2022-09-16T11:09:50.087Z,18.90
2022-09-16T11:12:34.027Z,18.83
2022-09-16T11:15:11.656Z,18.71
2022-09-16T11:17:52.314Z,18.49
2022-09-16T11:20:35.780Z,18.28
2022-09-16T11:23:10.035Z,18.10
2022-09-16T11:25:46.725Z,18.06
2022-09-16T11:28:33.343Z,17.89
2022-09-16T11:31:10.945Z,17.35
2022-09-16T11:33:46.258Z,16.67
2022-09-16T11:36:35.140Z,15.96
2022-09-16T11:39:17.033Z,15.31
2022-09-16T11:41:51.647Z,14.74
2022-09-16T11:44:33.944Z,14.29
2022-09-16T11:47:15.219Z,13.91
2022-09-16T11:49:59.697Z,13.67
2022-09-16T11:52:39.671Z,13.52
2022-09-16T11:55:24.622Z,13.40
2022-09-16T11:57:58.137Z,13.31
2022-09-16T12:00:28.815Z,13.21
2022-09-16T12:03:02.564Z,13.14
2022-09-16T12:05:36.125Z,13.11
2022-09-16T12:08:14.147Z,13.15
2022-09-16T12:10:48.323Z,13.33
2022-09-16T12:13:22.100Z,13.72
2022-09-16T12:15:55.014Z,14.11
2022-09-16T12:18:32.930Z,14.40
2022-09-16T12:21:08.753Z,14.70
2022-09-16T12:23:44.088Z,15.45
2022-09-16T12:26:16.366Z,17.30
2022-09-16T12:28:52.983Z,19.04
2022-09-16T12:31:28.190Z,20.59
2022-09-16T12:33:59.886Z,21.99
2022-09-16T12:36:33.361Z,23.05
2022-09-16T12:39:03.903Z,23.89
2022-09-16T12:41:49.638Z,24.64
2022-09-16T12:44:47.096Z,25.46
2022-09-16T12:47:29.217Z,26.29
2022-09-16T12:50:20.819Z,26.97
2022-09-16T12:56:09.328Z,27.50
2022-09-16T12:59:05.937Z,27.87
2022-09-16T13:01:40.196Z,26.84
2022-09-16T13:04:16.919Z,27.02
2022-09-16T13:06:50.202Z,27.44
2022-09-16T13:09:25.264Z,27.55
2022-09-16T13:14:52.696Z,27.01
2022-09-16T13:17:32.280Z,25.34
2022-09-16T13:20:08.596Z,23.60
2022-09-16T13:22:45.123Z,22.07
2022-09-16T13:25:24.496Z,20.97
2022-09-16T13:28:02.483Z,20.84
2022-09-16T13:30:37.704Z,20.17
2022-09-16T13:33:29.443Z,19.33
2022-09-16T13:36:18.751Z,18.51
2022-09-16T13:38:50.891Z,17.90
2022-09-16T13:41:34.410Z,17.47
2022-09-16T13:44:26.761Z,17.10
2022-09-16T13:46:57.428Z,16.72
2022-09-16T13:49:28.354Z,16.42
2022-09-16T13:51:58.745Z,16.15
2022-09-16T13:54:37.111Z,15.95
2022-09-16T13:57:25.853Z,15.79
2022-09-16T14:00:06.083Z,15.67
2022-09-16T14:02:45.128Z,15.70
2022-09-16T14:05:24.496Z,16.31
2022-09-16T14:07:59.452Z,16.34
2022-09-16T14:10:35.278Z,16.22
2022-09-16T14:13:11.025Z,16.15
2022-09-16T14:15:44.920Z,16.06
2022-09-16T14:18:17.871Z,15.96
2022-09-16T14:20:58.729Z,15.83
2022-09-16T14:23:29.568Z,15.79
2022-09-16T14:26:00.065Z,15.77
2022-09-16T14:28:31.286Z,15.70
2022-09-16T14:31:03.813Z,15.59
2022-09-16T14:33:36.213Z,15.56
2022-09-16T14:36:13.659Z,15.51
2022-09-16T14:38:46.999Z,15.49
2022-09-16T14:41:23.575Z,15.49
2022-09-16T14:43:54.238Z,15.54
2022-09-16T14:46:24.629Z,15.59
2022-09-16T14:48:55.162Z,15.59
2022-09-16T14:51:27.514Z,15.61
2022-09-16T14:54:15.487Z,15.62
2022-09-16T14:56:55.164Z,15.65
2022-09-16T14:59:27.848Z,15.59
2022-09-16T15:02:02.414Z,15.49
2022-09-16T15:04:35.920Z,15.25
2022-09-16T15:07:12.592Z,14.84
2022-09-16T15:09:46.331Z,14.40
2022-09-16T15:12:22.951Z,13.99
2022-09-16T15:14:53.402Z,13.63
2022-09-16T15:17:25.961Z,13.33
2022-09-16T15:19:59.543Z,13.04
2022-09-16T15:22:30.353Z,12.78
2022-09-16T15:25:01.053Z,12.53
2022-09-16T15:27:32.751Z,12.31
2022-09-16T15:30:05.639Z,12.10
2022-09-16T15:32:45.550Z,11.92
2022-09-16T15:35:35.396Z,11.73
2022-09-16T15:38:14.313Z,11.49
2022-09-16T15:40:44.789Z,11.28
2022-09-16T15:43:19.207Z,11.10
2022-09-16T15:46:00.368Z,10.98
2022-09-16T15:48:34.843Z,10.92
2022-09-16T15:51:09.213Z,10.91
2022-09-16T15:53:44.165Z,10.90
2022-09-16T15:56:24.342Z,10.89
2022-09-16T15:58:58.204Z,10.89
2022-09-16T16:01:42.064Z,10.93
2022-09-16T16:04:15.329Z,11.05
2022-09-16T16:06:54.917Z,11.23
2022-09-16T16:09:41.666Z,11.40
2022-09-16T16:12:14.331Z,11.54
2022-09-16T16:14:46.532Z,11.64
2022-09-16T16:17:18.984Z,11.70
2022-09-16T16:19:50.566Z,11.73
2022-09-16T16:22:21.154Z,11.75
2022-09-16T16:24:51.603Z,11.74
2022-09-16T16:27:21.956Z,11.72
2022-09-16T16:29:52.278Z,11.67
2022-09-16T16:32:22.493Z,11.64
2022-09-16T16:34:54.793Z,11.61
2022-09-16T16:37:44.910Z,11.56
2022-09-16T16:40:16.013Z,11.49
2022-09-16T16:42:46.533Z,11.41
2022-09-16T16:45:17.058Z,11.33
2022-09-16T16:47:47.650Z,11.23
2022-09-16T16:50:18.704Z,11.13
2022-09-16T16:52:53.084Z,11.03
2022-09-16T16:55:23.502Z,10.95
2022-09-16T16:57:55.223Z,10.88
2022-09-16T17:00:29.989Z,10.83
2022-09-16T17:03:00.344Z,10.76
2022-09-16T17:05:31.022Z,10.72
2022-09-16T17:08:01.740Z,10.66
2022-09-16T17:10:32.269Z,10.62
2022-09-16T17:13:02.692Z,10.57
2022-09-16T17:15:35.342Z,10.53
2022-09-16T17:18:05.979Z,10.47
2022-09-16T17:20:39.741Z,10.44
2022-09-16T17:23:11.544Z,10.42
2022-09-16T17:25:42.512Z,10.39
2022-09-16T17:28:14.143Z,10.34
2022-09-16T17:30:47.325Z,10.28
2022-09-16T17:33:17.817Z,10.22
2022-09-16T17:35:48.307Z,10.16
2022-09-16T17:38:18.805Z,10.09
2022-09-16T17:40:49.446Z,10.03
2022-09-16T17:43:20.097Z,9.95
2022-09-16T17:45:53.394Z,9.93
2022-09-16T17:48:25.335Z,9.88
2022-09-16T17:50:56.574Z,9.82
2022-09-16T17:53:28.540Z,9.76
2022-09-16T17:56:06.367Z,9.71
2022-09-16T17:58:39.064Z,9.65
2022-09-16T18:01:11.644Z,9.60
2022-09-16T18:03:50.998Z,9.59
2022-09-16T18:06:23.377Z,9.58
2022-09-16T18:08:55.232Z,9.56
2022-09-16T18:11:25.627Z,9.53
2022-09-16T18:13:59.858Z,9.50
2022-09-16T18:16:31.598Z,9.44
2022-09-16T18:19:03.932Z,9.39
2022-09-16T18:21:36.860Z,9.36
2022-09-16T18:24:11.224Z,9.36
2022-09-16T18:26:43.118Z,9.34
2022-09-16T18:29:14.761Z,9.29
2022-09-16T18:31:49.236Z,9.24
2022-09-16T18:34:21.386Z,9.18
2022-09-16T18:36:51.719Z,9.12
2022-09-16T18:39:22.112Z,9.08
2022-09-16T18:41:53.403Z,9.06
2022-09-16T18:44:24.848Z,9.04
2022-09-16T18:46:55.641Z,9.00
2022-09-16T18:49:28.937Z,8.94
2022-09-16T18:51:59.467Z,8.92
2022-09-16T18:54:30.807Z,8.85
2022-09-16T18:57:02.834Z,8.80
2022-09-16T18:59:34.188Z,8.74
2022-09-16T19:02:06.174Z,8.71
2022-09-16T19:04:41.002Z,8.69
2022-09-16T19:07:14.716Z,8.64
2022-09-16T19:09:45.877Z,8.59
2022-09-16T19:12:16.236Z,8.54
2022-09-16T19:14:48.850Z,8.46
2022-09-16T19:17:19.387Z,8.41
2022-09-16T19:19:50.879Z,8.35
2022-09-16T19:22:24.597Z,8.28
2022-09-16T19:24:55.700Z,8.20
2022-09-16T19:27:26.295Z,8.11
2022-09-16T19:29:56.680Z,8.01
2022-09-16T19:32:27.125Z,7.94
2022-09-16T19:34:57.783Z,7.88
2022-09-16T19:37:29.989Z,7.85
2022-09-16T19:40:00.696Z,7.83
2022-09-16T19:42:33.563Z,7.81
2022-09-16T19:45:04.065Z,7.78
2022-09-16T19:47:34.455Z,7.73
2022-09-16T19:50:06.179Z,7.69
2022-09-16T19:52:37.851Z,7.68
2022-09-16T19:55:09.985Z,7.69
2022-09-16T19:57:40.519Z,7.71
2022-09-16T20:00:15.383Z,7.72
2022-09-16T20:02:48.652Z,7.73
2022-09-16T20:05:21.292Z,7.74
2022-09-16T20:07:51.899Z,7.78
2022-09-16T20:10:22.870Z,7.78
2022-09-16T20:12:59.375Z,7.78
2022-09-16T20:15:30.049Z,7.76
2022-09-16T20:18:00.516Z,7.75
2022-09-16T20:20:31.409Z,7.72
2022-09-16T20:23:01.801Z,7.68
2022-09-16T20:25:32.377Z,7.65
2022-09-16T20:28:02.973Z,7.65
2022-09-16T20:30:33.382Z,7.66
2022-09-16T20:33:04.590Z,7.66
2022-09-16T20:35:36.757Z,7.63
2022-09-16T20:38:07.632Z,7.61
2022-09-16T20:40:38.566Z,7.61
2022-09-16T20:43:09.065Z,7.63
2022-09-16T20:45:40.790Z,7.66
2022-09-16T20:48:11.335Z,7.71
2022-09-16T20:50:42.003Z,7.76
2022-09-16T20:53:13.054Z,7.81
2022-09-16T20:55:43.537Z,7.85
2022-09-16T20:58:13.959Z,7.86
2022-09-16T21:00:44.630Z,7.87
2022-09-16T21:03:15.056Z,7.87
2022-09-16T21:05:45.759Z,7.89
2022-09-16T21:08:16.113Z,7.89
2022-09-16T21:10:46.473Z,7.90
2022-09-16T21:13:16.840Z,7.89
2022-09-16T21:15:57.446Z,7.89
2022-09-16T21:18:28.671Z,7.90
2022-09-16T21:21:04.491Z,7.94
2022-09-16T21:23:36.037Z,8.01
2022-09-16T21:26:07.160Z,8.06
2022-09-16T21:28:37.491Z,8.11
2022-09-16T21:31:10.600Z,8.15
2022-09-16T21:33:42.688Z,8.17
2022-09-16T21:36:14.574Z,8.17
2022-09-16T21:38:45.662Z,8.19
2022-09-16T21:41:17.597Z,8.24
2022-09-16T21:43:49.600Z,8.29
2022-09-16T21:46:21.584Z,8.32
2022-09-16T21:48:52.694Z,8.35
2022-09-16T21:51:23.477Z,8.37
2022-09-16T21:53:54.297Z,8.40
2022-09-16T21:56:25.610Z,8.44
2022-09-16T21:58:57.902Z,8.48
2022-09-16T22:01:30.466Z,8.50
2022-09-16T22:04:02.191Z,8.51
2022-09-16T22:06:32.987Z,8.50
2022-09-16T22:09:07.007Z,8.49
2022-09-16T22:11:39.486Z,8.48
2022-09-16T22:14:11.326Z,8.50
2022-09-16T22:16:42.016Z,8.52
2022-09-16T22:19:14.395Z,8.53
2022-09-16T22:21:47.294Z,8.53
2022-09-16T22:24:20.252Z,8.53
2022-09-16T22:26:52.017Z,8.52
2022-09-16T22:29:22.361Z,8.53
2022-09-16T22:31:52.791Z,8.54
2022-09-16T22:34:23.482Z,8.53
2022-09-16T22:36:53.860Z,8.52
2022-09-16T22:39:24.165Z,8.52
2022-09-16T22:41:54.526Z,8.52
2022-09-16T22:44:24.936Z,8.52
2022-09-16T22:46:55.421Z,8.53
2022-09-16T22:49:25.925Z,8.56
2022-09-16T22:51:56.296Z,8.59
2022-09-16T22:54:26.863Z,8.62
2022-09-16T22:56:57.180Z,8.63
2022-09-16T22:59:27.541Z,8.63
2022-09-16T23:01:58.173Z,8.63
2022-09-16T23:04:28.837Z,8.64
2022-09-16T23:06:59.860Z,8.64
2022-09-16T23:09:30.194Z,8.65
2022-09-16T23:12:00.599Z,8.64
2022-09-16T23:14:30.967Z,8.63
2022-09-16T23:17:01.303Z,8.61
2022-09-16T23:19:31.920Z,8.64
2022-09-16T23:22:02.518Z,8.67
2022-09-16T23:24:33.030Z,8.70
2022-09-16T23:27:03.292Z,8.71
2022-09-16T23:29:33.601Z,8.71
2022-09-16T23:32:04.385Z,8.68
2022-09-16T23:34:34.670Z,8.66
2022-09-16T23:37:05.083Z,8.65
2022-09-16T23:39:35.443Z,8.67
2022-09-16T23:42:06.215Z,8.70
2022-09-16T23:44:36.503Z,8.71
2022-09-16T23:47:07.315Z,8.70
2022-09-16T23:49:37.713Z,8.69
2022-09-16T23:52:08.353Z,8.68
2022-09-16T23:54:40.033Z,8.67
2022-09-16T23:57:10.448Z,8.68
2022-09-16T23:59:40.874Z,8.68
